createdAt,value
2022-11-17T00:00:42.250Z,12.58
2022-11-17T00:03:14.752Z,12.61
2022-11-17T00:05:43.179Z,12.74
2022-11-17T00:08:09.956Z,12.73
2022-11-17T00:10:36.781Z,12.69
2022-11-17T00:13:21.953Z,12.67
2022-11-17T00:15:49.016Z,12.72
2022-11-17T00:18:34.156Z,12.68
2022-11-17T00:21:19.525Z,12.65
2022-11-17T00:23:50.043Z,12.67
2022-11-17T00:26:18.462Z,12.68
2022-11-17T00:28:45.434Z,12.73
2022-11-17T00:31:33.977Z,12.75
2022-11-17T00:34:06.983Z,12.76
2022-11-17T00:36:45.271Z,12.75
2022-11-17T00:39:14.189Z,12.76
2022-11-17T00:41:40.933Z,12.72
2022-11-17T00:44:09.357Z,12.68
2022-11-17T00:46:37.342Z,12.79
2022-11-17T00:49:05.969Z,12.87
2022-11-17T00:51:33.190Z,12.79
2022-11-17T00:54:00.650Z,12.66
2022-11-17T00:56:27.707Z,12.46
2022-11-17T00:58:54.880Z,12.37
2022-11-17T01:01:22.186Z,12.38
2022-11-17T01:03:49.222Z,12.27
2022-11-17T01:06:19.835Z,12.15
2022-11-17T01:08:47.338Z,12.12
2022-11-17T01:11:17.409Z,12.03
2022-11-17T01:13:47.990Z,12.06
2022-11-17T01:16:19.382Z,12.21
2022-11-17T01:18:48.515Z,12.25
2022-11-17T01:21:23.379Z,12.20
2022-11-17T01:23:53.801Z,12.28
2022-11-17T01:26:25.900Z,12.36
2022-11-17T01:28:53.602Z,12.40
2022-11-17T01:31:23.445Z,12.41
2022-11-17T01:33:50.667Z,12.47
2022-11-17T01:36:23.141Z,12.53
2022-11-17T01:38:51.245Z,12.63
2022-11-17T01:41:21.953Z,12.74
2022-11-17T01:43:50.627Z,12.75
2022-11-17T01:46:33.600Z,12.79
2022-11-17T01:49:27.610Z,12.84
2022-11-17T01:52:03.562Z,12.78
2022-11-17T01:54:33.128Z,12.77
2022-11-17T01:57:11.438Z,12.79
2022-11-17T01:59:58.964Z,12.88
2022-11-17T02:02:26.257Z,13.03
2022-11-17T02:05:07.543Z,12.98
2022-11-17T02:07:38.225Z,12.96
2022-11-17T02:10:06.980Z,12.92
2022-11-17T02:12:35.692Z,12.90
2022-11-17T02:15:04.476Z,12.94
2022-11-17T02:17:42.613Z,12.81
2022-11-17T02:20:12.616Z,12.80
2022-11-17T02:22:53.991Z,12.86
2022-11-17T02:25:46.872Z,12.68
2022-11-17T02:28:18.584Z,12.67
2022-11-17T02:31:16.850Z,12.70
2022-11-17T02:34:03.531Z,12.77
2022-11-17T02:36:37.240Z,12.78
2022-11-17T02:39:42.992Z,12.59
2022-11-17T02:42:54.173Z,12.59
2022-11-17T02:45:36.431Z,12.43
2022-11-17T02:48:12.426Z,12.59
2022-11-17T02:50:44.687Z,12.68
2022-11-17T02:53:13.077Z,12.48
2022-11-17T02:55:39.766Z,12.47
2022-11-17T02:58:12.560Z,12.49
2022-11-17T03:01:02.152Z,12.47
2022-11-17T03:03:55.531Z,12.41
2022-11-17T03:07:00.659Z,12.47
2022-11-17T03:09:49.566Z,12.56
2022-11-17T03:12:31.686Z,12.61
2022-11-17T03:15:04.290Z,12.64
2022-11-17T03:17:50.877Z,12.73
2022-11-17T03:20:28.024Z,12.78
2022-11-17T03:23:05.373Z,12.87
2022-11-17T03:25:35.148Z,12.84
2022-11-17T03:28:06.895Z,12.86
2022-11-17T03:30:37.718Z,12.90
2022-11-17T03:33:15.313Z,12.87
2022-11-17T03:35:50.676Z,12.86
2022-11-17T03:38:23.791Z,12.68
2022-11-17T03:40:54.207Z,12.65
2022-11-17T03:43:21.755Z,12.63
2022-11-17T03:45:51.665Z,12.67
2022-11-17T03:48:56.985Z,12.75
2022-11-17T03:51:28.437Z,12.69
2022-11-17T03:53:57.019Z,12.67
2022-11-17T03:56:45.707Z,12.71
2022-11-17T03:59:27.266Z,12.84
2022-11-17T04:01:54.280Z,12.94
2022-11-17T04:04:22.497Z,13.08
2022-11-17T04:06:53.262Z,13.03
2022-11-17T04:09:24.144Z,13.02
2022-11-17T04:12:11.305Z,13.11
2022-11-17T04:14:56.686Z,13.13
2022-11-17T04:17:23.816Z,13.10
2022-11-17T04:19:50.465Z,13.10
2022-11-17T04:22:17.479Z,13.11
2022-11-17T04:24:44.207Z,13.14
2022-11-17T04:27:30.900Z,13.18
2022-11-17T04:29:57.800Z,13.24
2022-11-17T04:32:24.489Z,13.26
2022-11-17T04:34:52.166Z,13.31
2022-11-17T04:37:18.879Z,13.34
2022-11-17T04:39:46.558Z,13.39
2022-11-17T04:42:13.290Z,13.41
2022-11-17T04:44:41.897Z,13.48
2022-11-17T04:47:08.586Z,13.68
2022-11-17T04:49:36.298Z,13.59
2022-11-17T04:52:03.135Z,13.52
2022-11-17T04:54:30.080Z,13.48
2022-11-17T04:56:57.101Z,13.49
2022-11-17T04:59:24.356Z,13.50
2022-11-17T05:01:51.353Z,13.45
2022-11-17T05:04:38.789Z,13.42
2022-11-17T05:07:08.329Z,13.37
2022-11-17T05:09:35.267Z,13.35
2022-11-17T05:12:20.890Z,13.33
2022-11-17T05:14:51.140Z,13.33
2022-11-17T05:17:18.227Z,13.19
2022-11-17T05:19:46.884Z,13.19
2022-11-17T05:22:35.367Z,13.23
2022-11-17T05:25:02.959Z,13.25
2022-11-17T05:27:29.840Z,13.26
2022-11-17T05:29:57.532Z,13.25
2022-11-17T05:32:24.242Z,13.35
2022-11-17T05:34:51.280Z,13.40
2022-11-17T05:37:18.551Z,13.53
2022-11-17T05:39:45.642Z,13.60
2022-11-17T05:42:12.430Z,13.70
2022-11-17T05:44:40.175Z,13.79
2022-11-17T05:47:07.293Z,13.82
2022-11-17T05:49:34.321Z,13.84
2022-11-17T05:52:01.069Z,13.93
2022-11-17T05:54:28.802Z,13.88
2022-11-17T05:57:02.508Z,13.83
2022-11-17T05:59:59.625Z,13.80
2022-11-17T06:02:34.893Z,13.78
2022-11-17T06:05:03.755Z,13.77
2022-11-17T06:07:30.783Z,13.76
2022-11-17T06:09:58.588Z,13.67
2022-11-17T06:12:25.322Z,13.63
2022-11-17T06:14:53.101Z,13.58
2022-11-17T06:17:38.084Z,13.57
2022-11-17T06:20:19.679Z,13.68
2022-11-17T06:22:49.138Z,13.79
2022-11-17T06:25:18.189Z,13.81
2022-11-17T06:27:47.733Z,13.85
2022-11-17T06:30:14.595Z,13.83
2022-11-17T06:32:44.247Z,13.81
2022-11-17T06:35:14.578Z,13.80
2022-11-17T06:37:41.429Z,13.77
2022-11-17T06:40:10.055Z,13.62
2022-11-17T06:42:58.133Z,13.60
2022-11-17T06:45:26.644Z,13.63
2022-11-17T06:47:55.381Z,13.65
2022-11-17T06:50:22.373Z,13.71
2022-11-17T06:52:49.064Z,13.71
2022-11-17T06:55:16.918Z,13.75
2022-11-17T06:57:47.690Z,13.80
2022-11-17T07:00:19.023Z,13.90
2022-11-17T07:02:47.172Z,13.95
2022-11-17T07:05:14.151Z,13.93
2022-11-17T07:07:41.088Z,13.90
2022-11-17T07:10:10.822Z,13.92
2022-11-17T07:12:37.604Z,13.96
2022-11-17T07:15:08.025Z,14.01
2022-11-17T07:17:34.806Z,14.10
2022-11-17T07:20:01.839Z,14.18
2022-11-17T07:22:28.592Z,14.31
2022-11-17T07:24:56.360Z,14.35
2022-11-17T07:27:23.154Z,14.34
2022-11-17T07:29:54.120Z,14.34
2022-11-17T07:32:20.867Z,14.36
2022-11-17T07:34:49.863Z,14.35
2022-11-17T07:37:17.043Z,14.39
2022-11-17T07:39:43.997Z,14.38
2022-11-17T07:42:10.736Z,14.41
2022-11-17T07:44:38.514Z,14.47
2022-11-17T07:47:05.338Z,14.50
2022-11-17T07:49:33.232Z,14.57
2022-11-17T07:52:00.863Z,14.61
2022-11-17T07:54:28.185Z,14.82
2022-11-17T07:56:54.997Z,14.86
2022-11-17T07:59:22.876Z,14.87
2022-11-17T08:01:49.604Z,14.83
2022-11-17T08:04:21.400Z,14.82
2022-11-17T08:06:48.126Z,14.90
2022-11-17T08:09:16.254Z,14.90
2022-11-17T08:11:43.057Z,14.91
2022-11-17T08:14:11.564Z,14.92
2022-11-17T08:16:38.360Z,14.94
2022-11-17T08:19:06.279Z,14.96
2022-11-17T08:21:33.037Z,14.98
2022-11-17T08:24:00.283Z,15.01
2022-11-17T08:26:27.144Z,15.03
2022-11-17T08:28:58.474Z,15.21
2022-11-17T08:31:26.173Z,15.26
2022-11-17T08:33:52.943Z,15.25
2022-11-17T08:36:20.883Z,15.29
2022-11-17T08:38:47.766Z,15.38
2022-11-17T08:41:14.664Z,15.46
2022-11-17T08:43:41.409Z,15.55
2022-11-17T08:46:12.806Z,15.60
2022-11-17T08:48:40.101Z,15.58
2022-11-17T08:51:08.258Z,15.63
2022-11-17T08:53:36.290Z,15.66
2022-11-17T08:56:10.633Z,15.66
2022-11-17T08:58:45.212Z,15.76
2022-11-17T09:01:17.674Z,15.67
2022-11-17T09:03:47.794Z,15.58
2022-11-17T09:06:16.795Z,15.48
2022-11-17T09:08:46.947Z,15.43
2022-11-17T09:11:14.847Z,15.42
2022-11-17T09:13:42.324Z,15.40
2022-11-17T09:16:11.511Z,15.42
2022-11-17T09:18:41.472Z,15.40
2022-11-17T09:21:15.744Z,15.34
2022-11-17T09:23:47.494Z,15.29
2022-11-17T09:26:16.378Z,15.25
2022-11-17T09:28:44.614Z,15.23
2022-11-17T09:31:17.320Z,15.20
2022-11-17T09:33:44.692Z,15.24
2022-11-17T09:36:13.281Z,15.24
2022-11-17T09:38:40.945Z,15.27
2022-11-17T09:41:22.956Z,15.26
2022-11-17T09:44:02.794Z,15.27
2022-11-17T09:46:59.549Z,15.34
2022-11-17T09:50:00.868Z,15.37
2022-11-17T09:52:34.626Z,15.37
2022-11-17T09:55:17.564Z,15.36
2022-11-17T09:57:49.360Z,15.35
2022-11-17T10:00:22.179Z,15.32
2022-11-17T10:02:51.605Z,15.34
2022-11-17T10:05:34.162Z,15.30
2022-11-17T10:08:07.242Z,15.31
2022-11-17T10:10:36.198Z,15.30
2022-11-17T10:13:06.084Z,15.44
2022-11-17T10:15:47.464Z,15.49
2022-11-17T10:18:15.983Z,15.42
2022-11-17T10:20:44.315Z,15.38
2022-11-17T10:23:15.028Z,15.37
2022-11-17T10:25:44.638Z,15.36
2022-11-17T10:28:29.938Z,15.36
2022-11-17T10:31:00.306Z,15.33
2022-11-17T10:33:45.217Z,15.30
2022-11-17T10:36:21.070Z,15.27
2022-11-17T10:38:52.106Z,15.33
2022-11-17T10:41:23.632Z,15.31
2022-11-17T10:44:02.290Z,15.28
2022-11-17T10:46:38.220Z,15.25
2022-11-17T10:49:25.124Z,15.22
2022-11-17T10:52:16.478Z,15.31
2022-11-17T10:54:43.782Z,15.47
2022-11-17T10:57:20.696Z,15.47
2022-11-17T10:59:57.650Z,15.46
2022-11-17T11:02:33.875Z,15.42
2022-11-17T11:05:13.601Z,15.46
2022-11-17T11:07:40.778Z,15.48
2022-11-17T11:10:20.429Z,15.49
2022-11-17T11:12:59.351Z,15.42
2022-11-17T11:15:33.526Z,15.33
2022-11-17T11:18:00.325Z,15.28
2022-11-17T11:20:59.046Z,15.22
2022-11-17T11:23:33.535Z,15.20
2022-11-17T11:26:20.389Z,15.28
2022-11-17T11:29:05.178Z,15.27
2022-11-17T11:31:52.967Z,15.18
2022-11-17T11:34:31.860Z,15.20
2022-11-17T11:37:13.722Z,15.23
2022-11-17T11:39:59.564Z,15.16
2022-11-17T11:42:55.003Z,15.16
2022-11-17T11:45:49.335Z,15.20
2022-11-17T11:48:21.142Z,15.15
2022-11-17T11:50:59.735Z,15.13
2022-11-17T11:53:29.679Z,15.27
2022-11-17T11:56:10.390Z,15.26
2022-11-17T11:58:44.748Z,15.22
2022-11-17T12:01:17.195Z,15.20
2022-11-17T12:03:57.190Z,15.17
2022-11-17T12:06:40.281Z,15.17
2022-11-17T12:09:07.008Z,15.22
2022-11-17T12:11:52.676Z,15.26
2022-11-17T12:14:19.929Z,15.35
2022-11-17T12:16:48.147Z,15.37
2022-11-17T12:19:42.691Z,15.39
2022-11-17T12:22:23.056Z,15.44
2022-11-17T12:25:00.370Z,15.46
2022-11-17T12:27:36.220Z,15.46
2022-11-17T12:30:06.459Z,15.47
2022-11-17T12:32:45.488Z,15.47
2022-11-17T12:35:26.126Z,15.53
2022-11-17T12:38:17.741Z,15.59
2022-11-17T12:40:52.046Z,15.61
2022-11-17T12:43:21.445Z,15.65
2022-11-17T12:45:54.295Z,15.73
2022-11-17T12:48:34.663Z,15.86
2022-11-17T12:51:49.292Z,15.82
2022-11-17T12:54:23.108Z,15.89
2022-11-17T12:57:05.182Z,15.92
2022-11-17T12:59:47.788Z,15.97
2022-11-17T13:02:33.270Z,16.01
2022-11-17T13:05:21.168Z,16.01
2022-11-17T13:07:48.106Z,16.04
2022-11-17T13:10:30.178Z,16.01
2022-11-17T13:13:19.993Z,16.06
2022-11-17T13:15:56.362Z,16.07
2022-11-17T13:18:32.745Z,16.08
2022-11-17T13:21:01.136Z,16.09
2022-11-17T13:23:32.081Z,16.15
2022-11-17T13:26:09.933Z,16.35
2022-11-17T13:28:36.973Z,16.34
2022-11-17T13:31:04.112Z,16.29
2022-11-17T13:33:35.426Z,16.30
2022-11-17T13:36:19.940Z,16.27
2022-11-17T13:38:48.840Z,16.26
2022-11-17T13:41:17.562Z,16.27
2022-11-17T13:43:46.349Z,16.25
2022-11-17T13:46:13.196Z,16.29
2022-11-17T13:48:47.456Z,16.34
2022-11-17T13:51:20.283Z,16.31
2022-11-17T13:54:02.870Z,16.29
2022-11-17T13:56:41.654Z,16.27
2022-11-17T13:59:29.421Z,16.23
2022-11-17T14:02:20.775Z,16.20
2022-11-17T14:05:15.268Z,16.15
2022-11-17T14:07:44.045Z,16.12
2022-11-17T14:10:19.731Z,16.12
2022-11-17T14:12:52.454Z,16.13
2022-11-17T14:15:23.013Z,16.18
2022-11-17T14:17:58.531Z,16.34
2022-11-17T14:20:31.343Z,16.25
2022-11-17T14:23:11.250Z,16.21
2022-11-17T14:25:40.386Z,16.10
2022-11-17T14:28:20.706Z,16.10
2022-11-17T14:30:52.017Z,16.19
2022-11-17T14:33:19.286Z,16.18
2022-11-17T14:35:58.520Z,16.11
2022-11-17T14:38:25.693Z,16.07
2022-11-17T14:40:53.202Z,16.01
2022-11-17T14:43:21.577Z,16.05
2022-11-17T14:45:53.206Z,16.00
2022-11-17T14:48:20.433Z,16.04
2022-11-17T14:50:48.616Z,16.12
2022-11-17T14:53:15.711Z,16.07
2022-11-17T14:55:42.674Z,16.03
2022-11-17T14:58:10.202Z,15.95
2022-11-17T15:00:37.804Z,15.90
2022-11-17T15:03:05.340Z,15.81
2022-11-17T15:05:32.422Z,15.79
2022-11-17T15:07:59.347Z,15.81
2022-11-17T15:10:26.231Z,15.89
2022-11-17T15:12:53.040Z,15.88
2022-11-17T15:15:20.042Z,15.88
2022-11-17T15:17:46.768Z,15.85
2022-11-17T15:20:13.776Z,15.83
2022-11-17T15:22:40.610Z,15.83
2022-11-17T15:25:08.181Z,15.83
2022-11-17T15:27:35.021Z,15.78
2022-11-17T15:30:01.983Z,15.72
2022-11-17T15:32:28.889Z,15.76
2022-11-17T15:34:55.653Z,15.80
2022-11-17T15:37:22.378Z,15.77
2022-11-17T15:39:49.203Z,15.82
2022-11-17T15:42:15.972Z,15.80
2022-11-17T15:44:42.874Z,15.83
2022-11-17T15:47:09.625Z,15.82
2022-11-17T15:49:36.516Z,15.73
2022-11-17T15:52:03.345Z,15.69
2022-11-17T15:54:30.103Z,15.67
2022-11-17T15:56:56.868Z,15.67
2022-11-17T15:59:23.664Z,15.70
2022-11-17T16:01:50.535Z,15.67
2022-11-17T16:04:17.548Z,15.64
2022-11-17T16:06:46.147Z,15.60
2022-11-17T16:09:13.998Z,15.54
2022-11-17T16:11:41.265Z,15.54
2022-11-17T16:14:08.469Z,15.54
2022-11-17T16:16:38.100Z,15.56
2022-11-17T16:19:05.613Z,15.59
2022-11-17T16:21:32.913Z,15.64
2022-11-17T16:24:00.988Z,15.64
2022-11-17T16:26:28.986Z,15.66
2022-11-17T16:29:06.650Z,15.68
2022-11-17T16:31:38.271Z,15.72
2022-11-17T16:34:07.854Z,15.76
2022-11-17T16:36:38.505Z,15.75
2022-11-17T16:39:07.580Z,15.73
2022-11-17T16:41:37.262Z,15.70
2022-11-17T16:44:08.722Z,15.71
2022-11-17T16:46:35.971Z,15.72
2022-11-17T16:49:06.536Z,15.68
2022-11-17T16:51:33.820Z,15.62
2022-11-17T16:54:06.012Z,15.60
2022-11-17T16:56:34.137Z,15.57
2022-11-17T16:59:01.048Z,15.52
2022-11-17T17:01:34.625Z,15.47
2022-11-17T17:04:10.032Z,15.43
2022-11-17T17:06:39.958Z,15.45
2022-11-17T17:09:08.409Z,15.50
2022-11-17T17:11:36.678Z,15.54
2022-11-17T17:14:08.486Z,15.56
2022-11-17T17:16:37.434Z,15.60
2022-11-17T17:19:06.600Z,15.60
2022-11-17T17:21:35.180Z,15.61
2022-11-17T17:24:02.564Z,15.64
2022-11-17T17:26:31.084Z,15.76
2022-11-17T17:29:00.375Z,15.63
2022-11-17T17:31:32.353Z,15.58
2022-11-17T17:34:02.262Z,15.53
2022-11-17T17:36:29.399Z,15.47
2022-11-17T17:38:58.934Z,15.47
2022-11-17T17:41:27.626Z,15.35
2022-11-17T17:43:58.558Z,15.34
2022-11-17T17:46:26.144Z,15.37
2022-11-17T17:48:53.269Z,15.41
2022-11-17T17:51:21.724Z,15.46
2022-11-17T17:53:51.251Z,15.46
2022-11-17T17:56:20.267Z,15.49
2022-11-17T17:58:49.012Z,15.54
2022-11-17T18:01:17.374Z,15.63
2022-11-17T18:03:46.395Z,15.64
2022-11-17T18:06:14.853Z,15.61
2022-11-17T18:09:21.520Z,15.64
2022-11-17T18:15:39.716Z,15.57
2022-11-17T18:18:06.754Z,15.56
2022-11-17T18:20:33.790Z,15.64
2022-11-17T18:23:00.662Z,15.70
2022-11-17T18:25:27.447Z,15.68
2022-11-17T18:27:54.234Z,15.64
2022-11-17T18:30:21.028Z,15.63
2022-11-17T18:32:47.802Z,15.62
2022-11-17T18:35:15.857Z,15.68
2022-11-17T18:37:42.717Z,15.81
2022-11-17T18:40:11.771Z,15.85
2022-11-17T18:42:38.584Z,15.84
2022-11-17T18:45:05.689Z,15.87
2022-11-17T18:47:32.612Z,15.92
2022-11-17T18:49:59.371Z,15.93
2022-11-17T18:52:31.256Z,15.95
2022-11-17T18:54:58.338Z,15.94
2022-11-17T18:57:25.066Z,15.99
2022-11-17T18:59:51.872Z,16.00
2022-11-17T19:02:18.585Z,15.99
2022-11-17T19:04:45.471Z,16.03
2022-11-17T19:07:12.479Z,16.07
2022-11-17T19:09:39.335Z,16.08
2022-11-17T19:12:08.843Z,16.11
2022-11-17T19:14:35.851Z,16.10
2022-11-17T19:17:02.620Z,16.11
2022-11-17T19:19:29.532Z,16.11
2022-11-17T19:21:56.417Z,16.09
2022-11-17T19:24:23.321Z,16.10
2022-11-17T19:26:50.070Z,16.10
2022-11-17T19:29:17.793Z,16.13
2022-11-17T19:31:46.120Z,16.12
2022-11-17T19:34:15.038Z,16.11
2022-11-17T19:36:42.314Z,16.15
2022-11-17T19:39:12.287Z,16.10
2022-11-17T19:41:40.287Z,16.14
2022-11-17T19:44:09.211Z,16.20
2022-11-17T19:46:36.946Z,16.21
2022-11-17T19:49:06.222Z,16.25
2022-11-17T19:51:36.543Z,16.25
2022-11-17T19:54:07.911Z,16.23
2022-11-17T19:56:35.822Z,16.18
2022-11-17T19:59:03.509Z,16.21
2022-11-17T20:01:31.790Z,16.31
2022-11-17T20:04:00.471Z,16.25
2022-11-17T20:06:32.114Z,16.24
2022-11-17T20:09:00.307Z,16.26
2022-11-17T20:11:28.805Z,16.24
2022-11-17T20:13:56.119Z,16.26
2022-11-17T20:16:25.727Z,16.20
2022-11-17T20:18:57.866Z,16.21
2022-11-17T20:21:26.318Z,16.23
2022-11-17T20:23:55.291Z,16.22
2022-11-17T20:26:24.916Z,16.22
2022-11-17T20:28:52.674Z,16.29
2022-11-17T20:31:22.156Z,16.30
2022-11-17T20:33:49.535Z,16.30
2022-11-17T20:36:18.920Z,16.27
2022-11-17T20:38:50.903Z,16.23
2022-11-17T20:41:18.274Z,16.30
2022-11-17T20:43:48.348Z,16.22
2022-11-17T20:46:18.303Z,16.18
2022-11-17T20:48:45.578Z,16.18
2022-11-17T20:51:15.454Z,16.11
2022-11-17T20:53:43.287Z,16.11
2022-11-17T20:56:12.052Z,16.06
2022-11-17T20:58:39.305Z,15.99
2022-11-17T21:01:14.866Z,15.92
2022-11-17T21:03:42.634Z,15.88
2022-11-17T21:06:09.892Z,15.91
2022-11-17T21:08:39.512Z,15.93
2022-11-17T21:11:32.256Z,15.89
2022-11-17T21:14:00.039Z,15.91
2022-11-17T21:16:27.240Z,15.98
2022-11-17T21:19:02.529Z,15.94
2022-11-17T21:21:29.790Z,15.95
2022-11-17T21:23:56.628Z,15.98
2022-11-17T21:26:23.749Z,15.96
2022-11-17T21:28:51.631Z,15.92
2022-11-17T21:31:24.058Z,15.91
2022-11-17T21:33:55.466Z,15.93
2022-11-17T21:36:23.779Z,15.96
2022-11-17T21:38:51.071Z,16.03
2022-11-17T21:41:22.158Z,16.11
2022-11-17T21:43:50.621Z,16.16
2022-11-17T21:46:20.262Z,16.27
2022-11-17T21:48:48.144Z,16.29
2022-11-17T21:51:19.813Z,16.33
2022-11-17T21:53:47.460Z,16.37
2022-11-17T21:56:14.389Z,16.41
2022-11-17T21:58:41.633Z,16.46
2022-11-17T22:01:14.408Z,16.49
2022-11-17T22:03:42.235Z,16.52
2022-11-17T22:06:20.468Z,16.50
2022-11-17T22:08:48.325Z,16.42
2022-11-17T22:11:35.239Z,16.39
2022-11-17T22:14:06.931Z,16.31
2022-11-17T22:16:36.368Z,16.21
2022-11-17T22:19:03.893Z,16.14
2022-11-17T22:21:31.379Z,16.06
2022-11-17T22:23:58.346Z,16.05
2022-11-17T22:26:25.377Z,16.02
2022-11-17T22:28:54.297Z,16.03
2022-11-17T22:31:22.626Z,16.02
2022-11-17T22:33:50.787Z,16.06
2022-11-17T22:36:18.879Z,16.09
2022-11-17T22:38:49.050Z,16.15
2022-11-17T22:41:15.996Z,16.20
2022-11-17T22:43:42.892Z,16.15
2022-11-17T22:46:11.322Z,16.09
2022-11-17T22:48:38.399Z,16.07
2022-11-17T22:51:08.323Z,16.11
2022-11-17T22:53:35.213Z,16.07
2022-11-17T22:56:06.504Z,16.08
2022-11-17T22:58:34.175Z,16.07
2022-11-17T23:01:07.740Z,16.08
2022-11-17T23:03:34.902Z,16.07
2022-11-17T23:06:03.321Z,16.07
2022-11-17T23:08:30.759Z,16.14
2022-11-17T23:11:35.384Z,16.12
2022-11-17T23:13:53.774Z,16.08
2022-11-17T23:16:20.585Z,16.08
2022-11-17T23:18:47.370Z,16.09
2022-11-17T23:21:14.132Z,16.10
2022-11-17T23:23:41.237Z,16.07
2022-11-17T23:26:10.436Z,16.05
2022-11-17T23:28:39.244Z,16.05
2022-11-17T23:31:10.041Z,16.03
2022-11-17T23:33:40.319Z,16.01
2022-11-17T23:36:11.984Z,15.99
2022-11-17T23:38:38.883Z,15.99
2022-11-17T23:41:07.803Z,15.98
2022-11-17T23:43:34.619Z,15.97
2022-11-17T23:46:11.285Z,16.02
2022-11-17T23:48:38.094Z,16.04
2022-11-17T23:51:17.694Z,16.03
2022-11-17T23:53:44.724Z,16.04
2022-11-17T23:56:11.527Z,16.07
2022-11-17T23:58:39.055Z,16.09
